METAR Data
IDs: Format: Raw Decoded Include TAF

Data at: 2155 UTC 18 Sep 2018

KDWH 182053Z COR 00000KT 10SM SCT055 35/22 A2990 RMK AO2 SLP123 T03500222 56025
KDWH 181953Z 00000KT 10SM SCT050 35/23 A2992 RMK AO2 SLP130 T03500233
KDWH 181853Z 00000KT 10SM SCT050 SCT060 35/24 A2994 RMK AO2 SLP136 T03500239
KDWH 181753Z 00000KT 10SM CLR 33/23 A2997 RMK AO2 SLP148 T03330233 10339 20239 58012
KDWH 181653Z 02004KT 10SM CLR 33/24 A3000 RMK AO2 SLP155 T03330239
KDWH 181553Z 24003KT 10SM CLR 32/23 A3001 RMK AO2 SLP160 T03170233
KDWH 181453Z VRB04KT 10SM CLR 29/23 A3001 RMK AO2 SLP160 T02890233 50009
KDWH 181353Z 00000KT 10SM CLR 27/24 A3001 RMK AO2 SLP160 T02670239
KDWH 181253Z 00000KT 10SM CLR 25/23 A3000 RMK AO2 SLP156 T02500233
KDWH 181153Z 25003KT 10SM CLR 24/23 A2998 RMK AO2 SLP151 T02440233 10267 20244 53008
KDWH 181053Z AUTO 00000KT 10SM CLR 24/23 A2997 RMK AO2 SLP146 T02440233
KDWH 180953Z AUTO 00000KT 10SM CLR 25/23 A2996 RMK AO2 SLP144 T02500233
KDWH 180853Z AUTO 24003KT 10SM CLR 26/23 A2996 RMK AO2 SLP143 T02560233 56006
KDWH 180753Z AUTO 25004KT 10SM CLR 26/23 A2997 RMK AO2 SLP145 T02610233
KDWH 180653Z AUTO 23003KT 10SM CLR 27/23 A2997 RMK AO2 SLP146 T02670233
KDWH 180553Z AUTO 00000KT 10SM CLR 27/23 A2998 RMK AO2 SLP149 T02670233 10317 20250 403560233 51008
KDWH 180453Z AUTO 00000KT 10SM CLR 26/24 A2997 RMK AO2 SLP147 T02610239
KDWH 180353Z AUTO 00000KT 10SM CLR 26/24 A2997 RMK AO2 SLP146 T02610239 TSNO
KDWH 180253Z 00000KT 10SM CLR 27/23 A2995 RMK AO2 SLP140 T02670233 53017
KDWH 180153Z 00000KT 10SM CLR 29/23 A2993 RMK AO2 SLP134 T02890228
KDWH 180053Z 00000KT 10SM CLR 27/23 A2991 RMK AO2 SLP127 T02720233
KDWH 172353Z 00000KT 10SM CLR 32/22 A2990 RMK AO2 SLP123 T03170217 10356 20317 55006
KDWH 172253Z 27005KT 10SM CLR 34/21 A2990 RMK AO2 SLP122 T03390211
KDWH 172153Z 29006KT 10SM CLR 34/22 A2991 RMK AO2 SLP125 T03440217
KDWH 172053Z VRB03KT 10SM BKN050 34/23 A2992 RMK AO2 SLP130 T03440228 56021
KDWH 171953Z 00000KT 10SM CLR 34/22 A2994 RMK AO2 SLP135 T03390222
KDWH 171853Z 00000KT 10SM SCT044 33/22 A2996 RMK AO2 SLP144 T03330222
KDWH 171753Z 03004KT 10SM CLR 33/23 A2998 RMK AO2 SLP150 T03330228 10333 20233 58006
KDWH 171653Z 30005KT 10SM CLR 32/23 A3000 RMK AO2 SLP157 T03170228
KDWH 171553Z VRB06KT 10SM FEW048 30/23 A3001 RMK AO2 SLP160 T03000233
KDWH 171453Z 30009KT 10SM CLR 29/23 A3000 RMK AO2 SLP157 T02940228 51016
KDWH 171353Z 29004KT 10SM CLR 27/24 A2999 RMK AO2 SLP153 T02720239
KDWH 171253Z 00000KT 10SM CLR 24/22 A2997 RMK AO2 SLP148 T02390222
KDWH 171153Z 28003KT 10SM CLR 24/22 A2995 RMK AO2 SLP141 T02390222 10250 20233 53010
KDWH 171053Z AUTO 33003KT 10SM CLR 24/23 A2994 RMK AO2 SLP136 T02390228